createdAt,value
2022-12-24T00:00:13.019Z,99693.03
2022-12-24T00:02:39.886Z,99695.19
2022-12-24T00:05:07.299Z,99695.31
2022-12-24T00:07:34.062Z,99699.44
2022-12-24T00:10:00.833Z,99703.97
2022-12-24T00:12:27.657Z,99704.50
2022-12-24T00:14:54.498Z,99701.47
2022-12-24T00:17:21.324Z,99708.16
2022-12-24T00:19:48.015Z,99710.47
2022-12-24T00:22:15.214Z,99723.28
2022-12-24T00:24:41.990Z,99718.69
2022-12-24T00:27:08.830Z,99718.88
2022-12-24T00:29:35.663Z,99730.13
2022-12-24T00:32:02.455Z,99738.78
2022-12-24T00:34:29.314Z,99744.66
2022-12-24T00:36:56.189Z,99750.63
2022-12-24T00:39:22.868Z,99752.94
2022-12-24T00:41:49.730Z,99754.75
2022-12-24T00:44:16.654Z,99750.03
2022-12-24T00:46:43.503Z,99756.94
2022-12-24T00:49:11.677Z,99745.28
2022-12-24T00:51:38.483Z,99748.47
2022-12-24T00:54:06.392Z,99754.34
2022-12-24T00:56:33.368Z,99735.31
2022-12-24T00:59:00.275Z,99739.53
2022-12-24T01:01:27.844Z,99739.19
2022-12-24T01:04:17.847Z,99730.06
2022-12-24T01:06:44.839Z,99719.50
2022-12-24T01:09:11.763Z,99729.66
2022-12-24T01:11:38.827Z,99730.09
2022-12-24T01:14:05.817Z,99717.72
2022-12-24T01:16:32.684Z,99721.34
2022-12-24T01:18:59.477Z,99722.78
2022-12-24T01:21:27.512Z,99723.00
2022-12-24T01:23:54.542Z,99714.44
2022-12-24T01:26:21.345Z,99717.53
2022-12-24T01:28:48.589Z,99721.34
2022-12-24T01:31:19.033Z,99703.41
2022-12-24T01:33:47.137Z,99704.69
2022-12-24T01:36:14.674Z,99703.22
2022-12-24T01:38:42.729Z,99715.47
2022-12-24T01:41:36.969Z,99712.28
2022-12-24T01:44:31.210Z,99722.41
2022-12-24T01:47:22.204Z,99732.53
2022-12-24T01:49:54.812Z,99732.56
2022-12-24T01:52:24.586Z,99734.31
2022-12-24T01:54:58.900Z,99738.31
2022-12-24T01:57:49.461Z,99752.22
2022-12-24T02:00:16.750Z,99754.53
2022-12-24T02:02:49.659Z,99752.69
2022-12-24T02:05:32.488Z,99750.47
2022-12-24T02:08:03.174Z,99750.97
2022-12-24T02:10:30.356Z,99738.28
2022-12-24T02:12:58.686Z,99746.44
2022-12-24T02:15:30.437Z,99750.59
2022-12-24T02:18:18.493Z,99753.16
2022-12-24T02:20:54.738Z,99764.13
2022-12-24T02:23:28.304Z,99763.41
2022-12-24T02:26:18.723Z,99764.28
2022-12-24T02:28:54.744Z,99772.97
2022-12-24T02:31:26.288Z,99780.88
2022-12-24T02:34:06.855Z,99781.00
2022-12-24T02:36:44.419Z,99778.56
2022-12-24T02:39:20.031Z,99771.66
2022-12-24T02:42:08.634Z,99775.84
2022-12-24T02:44:50.153Z,99778.16
2022-12-24T02:47:20.223Z,99775.25
2022-12-24T02:49:49.029Z,99782.28
2022-12-24T02:52:39.580Z,99791.66
2022-12-24T02:55:35.807Z,99795.00
2022-12-24T02:58:27.474Z,99800.06
2022-12-24T03:01:18.505Z,99801.00
2022-12-24T03:03:55.956Z,99805.31
2022-12-24T03:07:03.560Z,99814.31
2022-12-24T03:09:44.336Z,99799.78
2022-12-24T03:12:17.682Z,99805.19
2022-12-24T03:14:45.615Z,99799.84
2022-12-24T03:17:13.533Z,99810.84
2022-12-24T03:19:41.341Z,99805.31
2022-12-24T03:22:11.891Z,99806.06
2022-12-24T03:24:39.483Z,99804.88
2022-12-24T03:27:09.218Z,99811.16
2022-12-24T03:29:39.141Z,99810.34
2022-12-24T03:32:06.835Z,99821.25
2022-12-24T03:34:34.406Z,99816.81
2022-12-24T03:37:01.786Z,99819.88
2022-12-24T03:39:29.784Z,99829.00
2022-12-24T03:41:57.296Z,99834.00
2022-12-24T03:44:25.729Z,99834.09
2022-12-24T03:46:55.306Z,99835.38
2022-12-24T03:49:23.774Z,99827.56
2022-12-24T03:51:51.931Z,99835.19
2022-12-24T03:54:20.410Z,99841.94
2022-12-24T03:56:48.809Z,99837.69
2022-12-24T03:59:16.761Z,99834.28
2022-12-24T04:01:44.547Z,99838.78
2022-12-24T04:04:12.132Z,99833.38
2022-12-24T04:06:39.559Z,99838.75
2022-12-24T04:09:07.145Z,99843.75
2022-12-24T04:11:36.424Z,99844.03
2022-12-24T04:14:03.948Z,99849.84
2022-12-24T04:16:31.346Z,99859.56
2022-12-24T04:18:58.680Z,99864.56
2022-12-24T04:21:26.079Z,99864.81
2022-12-24T04:23:53.501Z,99870.72
2022-12-24T04:26:20.948Z,99872.53
2022-12-24T04:28:48.524Z,99866.66
2022-12-24T04:31:17.874Z,99874.38
2022-12-24T04:33:45.909Z,99878.56
2022-12-24T04:36:17.162Z,99875.59
2022-12-24T04:38:44.583Z,99887.50
2022-12-24T04:41:23.293Z,99891.69
2022-12-24T04:43:52.136Z,99904.72
2022-12-24T04:46:25.020Z,99896.22
2022-12-24T04:48:53.633Z,99896.00
2022-12-24T04:51:21.325Z,99905.66
2022-12-24T04:53:48.159Z,99912.16
2022-12-24T04:56:24.311Z,99926.19
2022-12-24T04:58:51.974Z,99932.03
2022-12-24T05:01:23.793Z,99928.63
2022-12-24T05:03:51.875Z,99929.09
2022-12-24T05:06:22.080Z,99927.38
2022-12-24T05:08:49.649Z,99941.34
2022-12-24T05:11:16.779Z,99939.19
2022-12-24T05:13:47.387Z,99939.34
2022-12-24T05:16:17.221Z,99956.00
2022-12-24T05:18:44.448Z,99952.19
2022-12-24T05:21:14.647Z,99953.72
2022-12-24T05:24:00.263Z,99962.28
2022-12-24T05:26:46.933Z,99965.59
2022-12-24T05:29:13.911Z,99962.16
2022-12-24T05:31:42.431Z,99976.41
2022-12-24T05:34:10.458Z,99985.25
2022-12-24T05:36:37.645Z,99977.53
2022-12-24T05:39:09.762Z,99972.69
2022-12-24T05:41:40.444Z,99982.75
2022-12-24T05:44:07.133Z,99983.50
2022-12-24T05:46:33.989Z,99988.00
2022-12-24T05:49:00.779Z,99992.88
2022-12-24T05:51:27.529Z,99982.91
2022-12-24T05:53:54.246Z,99988.81
2022-12-24T05:56:23.348Z,99992.16
2022-12-24T05:58:52.214Z,100011.13
2022-12-24T06:01:21.007Z,100014.78
2022-12-24T06:03:50.030Z,100015.47
2022-12-24T06:06:23.377Z,100009.59
2022-12-24T06:08:52.857Z,100010.00
2022-12-24T06:11:24.277Z,100018.25
2022-12-24T06:13:53.870Z,100021.09
2022-12-24T06:16:22.409Z,100022.84
2022-12-24T06:18:50.146Z,100030.09
2022-12-24T06:21:19.335Z,100021.09
2022-12-24T06:23:47.268Z,100027.16
2022-12-24T06:26:17.411Z,100031.91
2022-12-24T06:28:44.921Z,100033.41
2022-12-24T06:31:18.032Z,100033.56
2022-12-24T06:33:45.077Z,100038.25
2022-12-24T06:36:21.853Z,100031.75
2022-12-24T06:38:49.526Z,100033.91
2022-12-24T06:41:17.616Z,100036.06
2022-12-24T06:43:52.425Z,100045.38
2022-12-24T06:46:45.152Z,100039.91
2022-12-24T06:49:11.833Z,100044.31
2022-12-24T06:51:38.523Z,100036.97
2022-12-24T06:54:05.278Z,100045.34
2022-12-24T06:56:32.097Z,100046.41
2022-12-24T06:59:04.875Z,100055.28
2022-12-24T07:01:32.310Z,100062.31
2022-12-24T07:03:59.352Z,100064.41
2022-12-24T07:06:28.920Z,100064.72
2022-12-24T07:08:55.854Z,100075.41
2022-12-24T07:11:25.084Z,100074.97
2022-12-24T07:13:51.771Z,100083.78
2022-12-24T07:16:18.711Z,100074.63
2022-12-24T07:18:45.630Z,100080.84
2022-12-24T07:21:12.380Z,100085.09
2022-12-24T07:23:39.234Z,100085.47
2022-12-24T07:26:07.161Z,100084.50
2022-12-24T07:28:34.396Z,100085.47
2022-12-24T07:31:01.388Z,100075.94
2022-12-24T07:33:28.250Z,100079.03
2022-12-24T07:36:03.535Z,100084.13
2022-12-24T07:38:31.199Z,100087.09
2022-12-24T07:40:58.590Z,100073.75
2022-12-24T07:43:26.702Z,100089.53
2022-12-24T07:45:57.994Z,100090.63
2022-12-24T07:48:26.396Z,100090.22
2022-12-24T07:50:53.215Z,100086.16
2022-12-24T07:53:20.147Z,100087.69
2022-12-24T07:55:46.920Z,100097.47
2022-12-24T07:58:13.639Z,100093.91
2022-12-24T08:00:40.648Z,100094.09
2022-12-24T08:03:07.452Z,100091.84
2022-12-24T08:05:36.075Z,100093.56
2022-12-24T08:08:02.994Z,100088.66
2022-12-24T08:10:29.739Z,100089.34
2022-12-24T08:12:56.452Z,100090.22
2022-12-24T08:15:23.199Z,100098.63
2022-12-24T08:17:49.955Z,100099.41
2022-12-24T08:20:17.426Z,100099.41
2022-12-24T08:22:44.109Z,100100.78
2022-12-24T08:25:11.064Z,100110.28
2022-12-24T08:27:38.157Z,100115.16
2022-12-24T08:30:06.044Z,100113.06
2022-12-24T08:32:32.949Z,100115.59
2022-12-24T08:34:59.718Z,100120.13
2022-12-24T08:37:26.442Z,100112.03
2022-12-24T08:39:53.185Z,100114.28
2022-12-24T08:42:19.897Z,100110.28
2022-12-24T08:44:46.993Z,100119.31
2022-12-24T08:47:13.683Z,100109.56
2022-12-24T08:49:40.491Z,100106.94
2022-12-24T08:52:07.297Z,100107.88
2022-12-24T08:54:34.052Z,100118.28
2022-12-24T08:57:00.727Z,100113.94
2022-12-24T08:59:27.470Z,100112.38
2022-12-24T09:01:54.467Z,100107.59
2022-12-24T09:04:21.216Z,100101.88
2022-12-24T09:06:47.962Z,100106.63
2022-12-24T09:09:17.948Z,100110.50
2022-12-24T09:11:45.342Z,100106.28
2022-12-24T09:14:12.340Z,100110.16
2022-12-24T09:16:39.078Z,100111.47
2022-12-24T09:19:05.937Z,100113.69
2022-12-24T09:21:32.664Z,100114.84
2022-12-24T09:24:01.366Z,100119.34
2022-12-24T09:26:30.013Z,100121.69
2022-12-24T09:28:57.593Z,100122.34
2022-12-24T09:31:24.819Z,100110.44
2022-12-24T09:33:51.741Z,100116.22
2022-12-24T09:36:19.767Z,100121.13
2022-12-24T09:38:47.117Z,100123.75
2022-12-24T09:41:15.329Z,100119.59
2022-12-24T09:43:49.997Z,100128.56
2022-12-24T09:46:23.250Z,100131.84
2022-12-24T09:48:55.662Z,100136.25
2022-12-24T09:51:41.915Z,100139.19
2022-12-24T09:54:18.083Z,100135.22
2022-12-24T09:56:47.535Z,100141.59
2022-12-24T09:59:20.492Z,100146.28
2022-12-24T10:01:49.184Z,100138.50
2022-12-24T10:04:18.924Z,100156.19
2022-12-24T10:06:58.657Z,100152.03
2022-12-24T10:09:40.331Z,100161.38
2022-12-24T10:12:19.199Z,100157.03
2022-12-24T10:14:58.005Z,100163.19
2022-12-24T10:17:38.026Z,100158.22
2022-12-24T10:20:07.809Z,100156.59
2022-12-24T10:22:52.037Z,100166.88
2022-12-24T10:25:28.187Z,100159.19
2022-12-24T10:27:58.095Z,100156.13
2022-12-24T10:30:25.244Z,100149.16
2022-12-24T10:32:53.827Z,100150.56
2022-12-24T10:35:29.315Z,100160.38
2022-12-24T10:37:58.083Z,100159.41
2022-12-24T10:40:35.750Z,100164.19
2022-12-24T10:43:05.447Z,100157.50
2022-12-24T10:45:40.327Z,100157.25
2022-12-24T10:48:11.991Z,100155.75
2022-12-24T10:50:53.163Z,100157.50
2022-12-24T10:53:44.621Z,100170.09
2022-12-24T10:56:14.198Z,100167.63
2022-12-24T10:58:53.526Z,100164.28
2022-12-24T11:01:43.561Z,100162.56
2022-12-24T11:04:23.034Z,100160.69
2022-12-24T11:06:53.164Z,100164.69
2022-12-24T11:09:27.849Z,100164.09
2022-12-24T11:11:57.411Z,100151.91
2022-12-24T11:14:25.611Z,100147.03
2022-12-24T11:16:54.777Z,100158.03
2022-12-24T11:19:36.011Z,100153.44
2022-12-24T11:22:16.760Z,100155.34
2022-12-24T11:24:49.925Z,100149.00
2022-12-24T11:27:46.020Z,100156.25
2022-12-24T11:30:15.810Z,100150.47
2022-12-24T11:32:50.921Z,100153.16
2022-12-24T11:35:23.404Z,100150.56
2022-12-24T11:38:13.127Z,100145.47
2022-12-24T11:40:45.961Z,100136.72
2022-12-24T11:43:21.627Z,100142.00
2022-12-24T11:45:56.812Z,100145.00
2022-12-24T11:48:34.446Z,100145.56
2022-12-24T11:51:04.700Z,100144.81
2022-12-24T11:53:50.385Z,100135.78
2022-12-24T11:56:40.936Z,100132.13
2022-12-24T11:59:21.692Z,100135.19
2022-12-24T12:01:56.928Z,100141.53
2022-12-24T12:04:36.535Z,100140.38
2022-12-24T12:07:40.066Z,100135.97
2022-12-24T12:10:20.948Z,100135.88
2022-12-24T12:13:15.942Z,100153.38
2022-12-24T12:16:05.487Z,100156.25
2022-12-24T12:18:47.128Z,100161.13
2022-12-24T12:21:23.487Z,100166.22
2022-12-24T12:23:54.933Z,100165.84
2022-12-24T12:26:32.241Z,100168.94
2022-12-24T12:29:04.070Z,100163.53
2022-12-24T12:31:35.997Z,100173.03
2022-12-24T12:34:11.867Z,100170.47
2022-12-24T12:37:00.598Z,100164.59
2022-12-24T12:39:27.271Z,100165.19
2022-12-24T12:42:02.776Z,100170.16
2022-12-24T12:44:35.542Z,100185.75
2022-12-24T12:47:09.638Z,100181.06
2022-12-24T12:50:32.635Z,100175.91
2022-12-24T12:53:14.261Z,100176.25
2022-12-24T12:56:06.996Z,100166.91
2022-12-24T12:58:48.161Z,100171.06
2022-12-24T13:01:33.714Z,100168.94
2022-12-24T13:04:03.310Z,100175.28
2022-12-24T13:06:56.034Z,100179.72
2022-12-24T13:09:43.707Z,100171.94
2022-12-24T13:12:29.346Z,100162.81
2022-12-24T13:15:13.999Z,100177.59
2022-12-24T13:17:52.650Z,100179.34
2022-12-24T13:20:26.697Z,100178.84
2022-12-24T13:22:59.299Z,100184.34
2022-12-24T13:25:39.008Z,100184.13
2022-12-24T13:28:24.931Z,100186.78
2022-12-24T13:30:53.282Z,100193.47
2022-12-24T13:33:38.357Z,100192.50
2022-12-24T13:36:07.143Z,100197.88
2022-12-24T13:38:44.942Z,100192.16
2022-12-24T13:41:38.668Z,100203.38
2022-12-24T13:44:15.335Z,100215.09
2022-12-24T13:46:58.121Z,100217.28
2022-12-24T13:49:33.224Z,100210.56
2022-12-24T13:52:12.079Z,100208.75
2022-12-24T13:54:42.956Z,100209.53
2022-12-24T13:57:38.791Z,100207.88
2022-12-24T14:00:20.645Z,100212.22
2022-12-24T14:02:56.452Z,100217.69
2022-12-24T14:05:43.477Z,100207.69
2022-12-24T14:08:14.428Z,100194.94
2022-12-24T14:10:45.868Z,100204.81
2022-12-24T14:13:40.604Z,100202.41
2022-12-24T14:16:13.421Z,100191.66
2022-12-24T14:18:43.766Z,100201.91
2022-12-24T14:21:26.692Z,100202.69
2022-12-24T14:24:00.317Z,100216.63
2022-12-24T14:26:47.175Z,100218.34
2022-12-24T14:29:25.385Z,100209.53
2022-12-24T14:31:54.455Z,100215.47
2022-12-24T14:34:21.254Z,100224.50
2022-12-24T14:36:50.428Z,100214.41
2022-12-24T14:39:32.500Z,100210.69
2022-12-24T14:42:17.692Z,100209.53
2022-12-24T14:45:03.064Z,100207.03
2022-12-24T14:47:47.977Z,100209.91
2022-12-24T14:50:37.999Z,100217.19
2022-12-24T14:53:20.843Z,100219.38
2022-12-24T14:55:49.542Z,100217.28
2022-12-24T14:58:27.023Z,100224.69
2022-12-24T15:00:57.759Z,100220.44
2022-12-24T15:03:27.673Z,100203.56
2022-12-24T15:05:59.370Z,100197.03
2022-12-24T15:08:52.653Z,100202.69
2022-12-24T15:11:22.402Z,100204.53
2022-12-24T15:13:56.442Z,100206.44
2022-12-24T15:16:27.831Z,100206.44
2022-12-24T15:19:01.061Z,100199.72
2022-12-24T15:21:34.277Z,100198.00
2022-12-24T15:24:01.142Z,100194.94
2022-12-24T15:26:43.668Z,100203.75
2022-12-24T15:29:33.484Z,100204.41
2022-12-24T15:32:04.869Z,100206.25
2022-12-24T15:34:44.413Z,100217.47
2022-12-24T15:37:14.750Z,100216.50
2022-12-24T15:39:41.983Z,100202.81
2022-12-24T15:42:13.591Z,100197.44
2022-12-24T15:44:44.516Z,100199.34
2022-12-24T15:47:19.383Z,100202.78
2022-12-24T15:49:50.436Z,100207.22
2022-12-24T15:52:21.217Z,100194.91
2022-12-24T15:54:55.424Z,100192.50
2022-12-24T15:57:29.729Z,100188.25
2022-12-24T15:59:58.252Z,100187.50
2022-12-24T16:02:24.989Z,100183.56
2022-12-24T16:04:51.895Z,100188.97
2022-12-24T16:07:26.809Z,100187.22
2022-12-24T16:10:13.409Z,100191.34
2022-12-24T16:12:40.399Z,100196.25
2022-12-24T16:15:15.219Z,100189.03
2022-12-24T16:17:47.885Z,100196.63
2022-12-24T16:20:21.344Z,100192.59
2022-12-24T16:22:50.154Z,100184.81
2022-12-24T16:25:28.911Z,100173.78
2022-12-24T16:27:58.519Z,100180.59
2022-12-24T16:30:27.146Z,100179.41
2022-12-24T16:32:53.917Z,100183.19
2022-12-24T16:35:26.453Z,100180.78
2022-12-24T16:37:54.424Z,100185.50
2022-12-24T16:40:26.901Z,100192.03
2022-12-24T16:43:13.973Z,100187.41
2022-12-24T16:45:41.033Z,100191.66
2022-12-24T16:48:08.853Z,100195.50
2022-12-24T16:50:36.167Z,100194.34
2022-12-24T16:53:03.116Z,100204.16
2022-12-24T16:55:35.960Z,100194.66
2022-12-24T16:58:02.680Z,100196.16
2022-12-24T17:00:29.453Z,100203.19
2022-12-24T17:02:56.478Z,100196.25
2022-12-24T17:05:23.939Z,100193.69
2022-12-24T17:07:51.132Z,100193.66
2022-12-24T17:10:18.181Z,100192.50
2022-12-24T17:12:46.162Z,100190.88
2022-12-24T17:15:12.883Z,100191.00
2022-12-24T17:17:39.613Z,100191.22
2022-12-24T17:20:07.022Z,100189.94
2022-12-24T17:22:34.165Z,100186.78
2022-12-24T17:25:00.909Z,100192.56
2022-12-24T17:27:27.669Z,100192.84
2022-12-24T17:29:54.431Z,100193.31
2022-12-24T17:32:21.356Z,100202.75
2022-12-24T17:34:48.045Z,100195.50
2022-12-24T17:37:14.770Z,100203.41
2022-12-24T17:39:41.475Z,100195.25
2022-12-24T17:42:08.223Z,100203.78
2022-12-24T17:44:34.981Z,100200.03
2022-12-24T17:47:03.320Z,100191.28
2022-12-24T17:49:30.126Z,100192.22
2022-12-24T17:51:57.002Z,100204.16
2022-12-24T17:54:24.224Z,100199.34
2022-12-24T17:56:51.067Z,100191.84
2022-12-24T17:59:17.849Z,100193.41
2022-12-24T18:01:44.649Z,100197.06
2022-12-24T18:04:11.519Z,100192.75
2022-12-24T18:06:47.263Z,100199.56
2022-12-24T18:09:16.039Z,100190.81
2022-12-24T18:11:42.701Z,100202.38
2022-12-24T18:14:13.942Z,100201.47
2022-12-24T18:16:42.137Z,100202.56
2022-12-24T18:19:11.601Z,100209.00
2022-12-24T18:21:38.422Z,100205.91
2022-12-24T18:24:05.600Z,100201.69
2022-12-24T18:26:33.323Z,100200.84
2022-12-24T18:29:01.613Z,100199.09
2022-12-24T18:31:29.868Z,100203.78
2022-12-24T18:33:57.088Z,100202.56
2022-12-24T18:36:23.907Z,100207.06
2022-12-24T18:38:51.147Z,100204.38
2022-12-24T18:41:20.940Z,100207.75
2022-12-24T18:43:48.538Z,100210.88
2022-12-24T18:46:24.177Z,100200.88
2022-12-24T18:48:51.718Z,100201.84
2022-12-24T18:51:22.067Z,100203.00
2022-12-24T18:53:49.285Z,100209.41
2022-12-24T18:56:21.737Z,100215.78
2022-12-24T18:58:49.516Z,100211.97
2022-12-24T19:01:20.006Z,100214.47
2022-12-24T19:03:47.843Z,100205.41
2022-12-24T19:06:14.650Z,100200.69
2022-12-24T19:08:58.925Z,100193.75
2022-12-24T19:11:28.804Z,100201.38
2022-12-24T19:13:55.813Z,100195.97
2022-12-24T19:16:22.700Z,100201.06
2022-12-24T19:18:49.798Z,100193.13
2022-12-24T19:21:18.036Z,100197.19
2022-12-24T19:23:47.049Z,100187.56
2022-12-24T19:26:16.753Z,100192.94
2022-12-24T19:28:45.226Z,100186.84
2022-12-24T19:31:15.325Z,100176.16
2022-12-24T19:33:45.114Z,100172.19
2022-12-24T19:36:15.143Z,100168.50
2022-12-24T19:38:42.371Z,100163.66
2022-12-24T19:41:15.270Z,100158.50
2022-12-24T19:43:44.329Z,100245.59
2022-12-24T19:46:16.026Z,100245.66
2022-12-24T19:48:43.567Z,100247.09
2022-12-24T19:51:12.378Z,100255.19
2022-12-24T19:53:40.175Z,100245.28
2022-12-24T19:56:08.645Z,100259.91
2022-12-24T19:58:36.074Z,100255.78
2022-12-24T20:01:15.657Z,100145.81
2022-12-24T20:03:43.184Z,100139.59
2022-12-24T20:06:10.106Z,100132.47
2022-12-24T20:08:37.920Z,100134.31
2022-12-24T20:11:10.336Z,100137.03
2022-12-24T20:13:39.168Z,100130.25
2022-12-24T20:16:14.920Z,100128.19
2022-12-24T20:18:41.952Z,100123.31
2022-12-24T20:21:11.291Z,100121.06
2022-12-24T20:23:39.473Z,100130.00
2022-12-24T20:26:07.571Z,100126.84
2022-12-24T20:28:36.307Z,100124.38
2022-12-24T20:31:13.763Z,100132.13
2022-12-24T20:33:42.363Z,100139.13
2022-12-24T20:36:10.086Z,100148.06
2022-12-24T20:38:37.881Z,100156.28
2022-12-24T20:41:05.706Z,100151.63
2022-12-24T20:43:37.340Z,100147.75
2022-12-24T20:46:06.960Z,100154.06
2022-12-24T20:48:34.964Z,100152.44
2022-12-24T20:51:09.507Z,100153.50
2022-12-24T20:53:38.485Z,100154.03
2022-12-24T20:56:05.583Z,100162.91
2022-12-24T20:58:32.592Z,100169.25
2022-12-24T21:00:59.308Z,100175.97
2022-12-24T21:03:26.310Z,100173.38
2022-12-24T21:05:53.204Z,100178.13
2022-12-24T21:08:20.082Z,100183.94
2022-12-24T21:10:47.124Z,100184.41
2022-12-24T21:13:13.910Z,100198.47
2022-12-24T21:15:41.053Z,100185.25
2022-12-24T21:18:11.946Z,100193.16
2022-12-24T21:20:40.105Z,100195.97
2022-12-24T21:23:07.385Z,100195.97
2022-12-24T21:25:34.591Z,100196.31
2022-12-24T21:28:02.443Z,100195.16
2022-12-24T21:30:29.269Z,100196.19
2022-12-24T21:32:56.112Z,100202.47
2022-12-24T21:35:23.175Z,100196.19
2022-12-24T21:37:49.915Z,100199.88
2022-12-24T21:40:16.811Z,100204.84
2022-12-24T21:42:43.541Z,100200.63
2022-12-24T21:45:10.988Z,100205.38
2022-12-24T21:47:38.256Z,100206.78
2022-12-24T21:50:28.240Z,100211.41
2022-12-24T21:53:18.956Z,100205.44
2022-12-24T21:55:45.853Z,100204.78
2022-12-24T21:58:12.707Z,100207.06
2022-12-24T22:00:42.448Z,100211.41
2022-12-24T22:03:09.508Z,100210.53
2022-12-24T22:05:36.254Z,100209.13
2022-12-24T22:08:21.668Z,100222.22
2022-12-24T22:11:06.900Z,100221.25
2022-12-24T22:13:33.630Z,100225.88
2022-12-24T22:16:00.434Z,100226.09
2022-12-24T22:18:27.345Z,100225.25
2022-12-24T22:20:54.851Z,100226.84
2022-12-24T22:23:21.609Z,100233.50
2022-12-24T22:25:48.387Z,100242.56
2022-12-24T22:28:15.191Z,100233.03
2022-12-24T22:30:43.075Z,100248.59
2022-12-24T22:33:11.045Z,100235.00
2022-12-24T22:35:41.286Z,100238.59
2022-12-24T22:38:09.549Z,100241.94
2022-12-24T22:40:39.451Z,100252.25
2022-12-24T22:43:06.221Z,100252.25
2022-12-24T22:45:32.918Z,100259.25
2022-12-24T22:47:59.658Z,100263.13
2022-12-24T22:50:26.516Z,100256.66
2022-12-24T22:52:53.952Z,100261.50
2022-12-24T22:55:21.319Z,100258.81
2022-12-24T22:57:48.745Z,100255.38
2022-12-24T23:00:37.173Z,100253.44
2022-12-24T23:03:05.143Z,100239.38
2022-12-24T23:05:32.125Z,100247.63
2022-12-24T23:07:59.144Z,100243.50
2022-12-24T23:10:25.921Z,100246.09
2022-12-24T23:13:14.779Z,100255.38
2022-12-24T23:15:42.624Z,100249.63
2022-12-24T23:18:10.024Z,100249.63
2022-12-24T23:20:43.142Z,100248.59
2022-12-24T23:23:09.842Z,100247.63
2022-12-24T23:25:37.135Z,100244.78
2022-12-24T23:28:03.963Z,100255.91
2022-12-24T23:30:30.729Z,100259.22
2022-12-24T23:32:57.549Z,100257.56
2022-12-24T23:35:24.493Z,100256.97
2022-12-24T23:37:51.187Z,100263.38
2022-12-24T23:40:17.985Z,100262.97
2022-12-24T23:42:44.640Z,100266.50
2022-12-24T23:45:11.798Z,100268.88
2022-12-24T23:47:38.619Z,100263.25
2022-12-24T23:50:06.447Z,100265.69
2022-12-24T23:52:33.161Z,100271.97
2022-12-24T23:54:59.895Z,100278.41
2022-12-24T23:57:26.596Z,100281.59
2022-12-24T23:59:53.457Z,100280.28
